Time;durP1;ratioP1;P1;durP2;ratioP2;P2;SDS_P1;SDS_P2;PMS_P1;PMS_P2;Temp;Humidity;BMP_temperature;BMP_pressure;BME280_temperature;BME280_humidity;BME280_pressure;Samples;Min_cycle;Max_cycle;Signal;HPM_P1;HPM_P2
2022/02/17 00:00:06;;;;;;;0.88;0.68;;;12.90;99.90;;;;;;6151518;23;20452;-83
2022/02/17 00:02:35;;;;;;;1.38;0.60;;;12.70;99.90;;;;;;6152660;23;20010;-82
2022/02/17 00:05:00;;;;;;;1.63;0.80;;;12.70;99.90;;;;;;6151026;23;20005;-83
2022/02/17 00:07:26;;;;;;;0.73;0.50;;;12.50;99.90;;;;;;6152002;23;20017;-83
2022/02/17 00:09:52;;;;;;;1.13;0.60;;;12.50;99.90;;;;;;6152829;23;20001;-82
2022/02/17 00:12:18;;;;;;;2.28;0.70;;;12.40;99.90;;;;;;6151025;23;20020;-83
2022/02/17 00:14:43;;;;;;;3.10;0.90;;;12.40;99.90;;;;;;6150821;23;20002;-83
2022/02/17 00:17:09;;;;;;;7.47;2.05;;;12.30;99.90;;;;;;6151836;23;20421;-81
2022/02/17 00:19:34;;;;;;;7.22;1.35;;;11.60;99.90;;;;;;6149712;23;20076;-81
2022/02/17 00:22:00;;;;;;;5.63;1.20;;;10.90;99.90;;;;;;6152026;23;20005;-80
2022/02/17 00:24:26;;;;;;;4.15;1.23;;;10.20;99.90;;;;;;6150470;23;20016;-80
2022/02/17 00:26:51;;;;;;;4.57;1.27;;;9.80;99.90;;;;;;6150398;23;20036;-80
2022/02/17 00:29:17;;;;;;;6.50;1.73;;;9.50;99.90;;;;;;6149170;23;20055;-80
2022/02/17 00:31:43;;;;;;;7.68;1.63;;;9.20;99.90;;;;;;6149701;23;20053;-80
2022/02/17 00:34:10;;;;;;;5.25;1.10;;;9.10;99.90;;;;;;6152074;23;20005;-80
2022/02/17 00:36:36;;;;;;;5.43;1.75;;;8.90;99.90;;;;;;6152380;23;20009;-80
2022/02/17 00:39:03;;;;;;;6.28;2.03;;;8.80;99.90;;;;;;6149414;23;20342;-80
2022/02/17 00:41:29;;;;;;;7.85;2.13;;;8.80;99.90;;;;;;6152098;23;20009;-80
2022/02/17 00:43:55;;;;;;;13.80;2.03;;;8.80;99.90;;;;;;6150297;23;20005;-81
2022/02/17 00:46:21;;;;;;;5.97;1.55;;;8.80;99.90;;;;;;6149842;23;20049;-80
2022/02/17 00:48:47;;;;;;;10.52;1.80;;;8.80;99.90;;;;;;6151519;23;20401;-81
2022/02/17 00:51:14;;;;;;;9.50;1.85;;;8.80;99.90;;;;;;6149775;23;20425;-81
2022/02/17 00:53:40;;;;;;;8.32;1.88;;;8.90;99.90;;;;;;6151763;23;20429;-81
2022/02/17 00:56:05;;;;;;;12.27;2.42;;;8.90;99.90;;;;;;6149963;23;20097;-81
2022/02/17 00:58:31;;;;;;;9.82;2.10;;;8.90;99.90;;;;;;6149370;23;20006;-82
2022/02/17 01:00:56;;;;;;;11.73;2.03;;;9.00;99.90;;;;;;6149978;23;20014;-82
2022/02/17 01:03:22;;;;;;;4.30;1.58;;;9.00;99.90;;;;;;6150828;23;20017;-82
2022/02/17 01:05:48;;;;;;;6.82;1.98;;;9.10;99.90;;;;;;6150813;23;20006;-82
2022/02/17 01:08:14;;;;;;;9.38;2.10;;;9.10;99.90;;;;;;6149441;23;20108;-82
2022/02/17 01:10:39;;;;;;;12.40;2.20;;;9.10;99.90;;;;;;6150000;23;20005;-82
2022/02/17 01:13:05;;;;;;;10.20;2.05;;;9.20;99.90;;;;;;6151526;23;20006;-82
2022/02/17 01:15:32;;;;;;;5.40;1.55;;;9.20;99.90;;;;;;6150772;23;20006;-82
2022/02/17 01:17:58;;;;;;;7.03;2.15;;;9.40;99.90;;;;;;6149424;23;20005;-83
2022/02/17 01:20:27;;;;;;;10.02;1.98;;;9.40;99.90;;;;;;6150662;23;20101;-82
2022/02/17 01:22:53;;;;;;;7.03;1.50;;;9.30;99.90;;;;;;6150348;23;20064;-83
2022/02/17 01:25:22;;;;;;;6.50;2.13;;;9.40;99.90;;;;;;6152133;23;20018;-82
2022/02/17 01:27:47;;;;;;;7.10;1.95;;;9.40;99.90;;;;;;6149645;23;20013;-83
2022/02/17 01:30:13;;;;;;;6.95;1.70;;;9.40;99.90;;;;;;6150713;23;20333;-82
2022/02/17 01:32:39;;;;;;;8.00;1.38;;;9.40;99.90;;;;;;6151739;23;20005;-83
2022/02/17 01:35:05;;;;;;;5.65;1.60;;;9.30;99.90;;;;;;6150464;23;20435;-83
2022/02/17 01:37:31;;;;;;;7.35;1.60;;;9.20;99.90;;;;;;6149470;23;20051;-83
2022/02/17 01:39:57;;;;;;;3.75;1.42;;;9.20;99.90;;;;;;6150129;23;20052;-84
2022/02/17 01:42:22;;;;;;;4.72;1.92;;;9.20;99.90;;;;;;6150404;23;20385;-83
2022/02/17 01:44:51;;;;;;;5.10;1.30;;;9.20;99.90;;;;;;6150057;23;20064;-83
2022/02/17 01:47:18;;;;;;;5.25;1.45;;;9.10;99.90;;;;;;6150706;23;20005;-83
2022/02/17 01:49:47;;;;;;;2.08;1.10;;;9.00;99.90;;;;;;6151833;23;20057;-83
2022/02/17 01:52:14;;;;;;;7.43;1.80;;;9.00;99.90;;;;;;6149737;23;20510;-82
2022/02/17 01:54:45;;;;;;;4.85;1.42;;;9.00;99.90;;;;;;6150038;23;20056;-83
2022/02/17 01:57:24;;;;;;;7.72;1.50;;;9.00;99.90;;;;;;6151541;23;20055;-83
2022/02/17 01:59:49;;;;;;;9.88;2.22;;;9.00;99.90;;;;;;6149924;23;20010;-84
2022/02/17 02:02:15;;;;;;;5.65;1.50;;;9.00;99.90;;;;;;6151116;23;20009;-84
2022/02/17 02:04:41;;;;;;;4.47;1.50;;;9.00;99.90;;;;;;6149653;23;20001;-84
2022/02/17 02:07:08;;;;;;;8.68;1.77;;;9.00;99.90;;;;;;6149800;23;20013;-84
2022/02/17 02:09:41;;;;;;;5.43;2.00;;;9.10;99.90;;;;;;6149085;23;20056;-84
2022/02/17 02:12:09;;;;;;;12.20;1.75;;;9.10;99.90;;;;;;6149805;23;20009;-85
2022/02/17 02:14:35;;;;;;;9.13;1.90;;;9.20;99.90;;;;;;6150333;23;20441;-81
2022/02/17 02:17:04;;;;;;;12.68;2.83;;;9.20;99.90;;;;;;6148749;23;20009;-81
2022/02/17 02:19:33;;;;;;;8.15;1.70;;;9.30;99.90;;;;;;6148556;23;20014;-80
2022/02/17 02:21:59;;;;;;;7.05;2.13;;;9.40;99.90;;;;;;6149677;23;20341;-81
2022/02/17 02:24:24;;;;;;;8.20;2.38;;;9.50;99.90;;;;;;6149408;23;19998;-81
2022/02/17 02:26:53;;;;;;;15.75;2.45;;;9.60;99.90;;;;;;6149285;23;20005;-81
2022/02/17 02:29:19;;;;;;;15.00;2.35;;;9.80;99.90;;;;;;6150369;23;20441;-81
2022/02/17 02:31:44;;;;;;;15.90;2.92;;;9.90;99.90;;;;;;6149318;23;20080;-81
2022/02/17 02:34:10;;;;;;;13.05;2.90;;;10.10;99.90;;;;;;6149539;23;20307;-81
2022/02/17 02:36:39;;;;;;;13.85;2.80;;;10.10;99.90;;;;;;6149837;23;20319;-81
2022/02/17 02:39:11;;;;;;;13.50;2.40;;;10.20;99.90;;;;;;6151648;23;20329;-81
2022/02/17 02:41:39;;;;;;;9.52;2.20;;;10.30;99.90;;;;;;6151611;23;20005;-81
2022/02/17 02:44:05;;;;;;;13.13;3.13;;;10.50;99.90;;;;;;6149886;23;20468;-81
2022/02/17 02:46:34;;;;;;;18.60;2.47;;;10.60;99.90;;;;;;6149486;23;20005;-81
2022/02/17 02:49:00;;;;;;;7.85;2.72;;;10.50;99.90;;;;;;6151575;23;20384;-81
2022/02/17 02:51:26;;;;;;;13.40;2.45;;;10.50;99.90;;;;;;6150632;23;20028;-81
2022/02/17 02:53:54;;;;;;;9.23;2.40;;;10.40;99.90;;;;;;6151008;23;20010;-80
2022/02/17 02:56:19;;;;;;;13.85;2.88;;;10.30;99.90;;;;;;6151044;23;20318;-82
2022/02/17 02:58:45;;;;;;;15.55;2.97;;;10.20;99.90;;;;;;6149390;23;20005;-83
2022/02/17 03:01:11;;;;;;;12.10;3.40;;;10.20;99.90;;;;;;6149755;23;20016;-83
2022/02/17 03:03:36;;;;;;;8.43;2.50;;;10.10;99.90;;;;;;6149167;23;20012;-83
2022/02/17 03:06:02;;;;;;;8.80;2.80;;;10.00;99.90;;;;;;6150928;23;20429;-83
2022/02/17 03:08:30;;;;;;;10.75;3.55;;;10.00;99.90;;;;;;6148529;23;20005;-82
2022/02/17 03:10:56;;;;;;;13.48;2.90;;;10.00;99.90;;;;;;6150197;23;20013;-82
2022/02/17 03:13:21;;;;;;;10.40;2.92;;;10.10;99.90;;;;;;6148457;23;20112;-82
2022/02/17 03:15:47;;;;;;;13.70;4.07;;;10.10;99.90;;;;;;6148700;23;20421;-81
2022/02/17 03:18:12;;;;;;;16.23;2.42;;;10.20;99.90;;;;;;6148375;23;20081;-82
2022/02/17 03:20:40;;;;;;;12.93;2.40;;;10.20;99.90;;;;;;6151494;23;20017;-82
2022/02/17 03:23:06;;;;;;;15.00;3.55;;;10.30;99.90;;;;;;6150360;23;20389;-83
2022/02/17 03:25:31;;;;;;;12.52;2.72;;;10.20;99.90;;;;;;6149337;23;20296;-82
2022/02/17 03:27:57;;;;;;;8.95;2.50;;;10.20;99.90;;;;;;6150853;23;20009;-81
2022/02/17 03:30:23;;;;;;;9.50;1.80;;;10.10;99.90;;;;;;6153208;23;20444;-82
2022/02/17 03:32:48;;;;;;;7.38;1.73;;;9.90;99.90;;;;;;6154579;23;20012;-82
2022/02/17 03:35:14;;;;;;;14.68;2.05;;;9.70;99.90;;;;;;6164742;23;20408;-81
2022/02/17 03:37:39;;;;;;;4.93;1.30;;;9.50;99.90;;;;;;6152077;23;20004;-82
2022/02/17 03:40:06;;;;;;;5.95;1.65;;;9.30;99.90;;;;;;6151929;23;20009;-82
2022/02/17 03:42:32;;;;;;;5.15;1.42;;;9.10;99.90;;;;;;6155255;23;20052;-82
2022/02/17 03:44:58;;;;;;;6.93;1.70;;;9.00;99.90;;;;;;6161117;23;20089;-82
2022/02/17 03:47:26;;;;;;;6.38;1.33;;;8.80;99.90;;;;;;6151323;23;20689;-82
2022/02/17 03:49:52;;;;;;;11.15;1.83;;;8.70;99.90;;;;;;6152313;23;20388;-82
2022/02/17 03:52:17;;;;;;;6.25;1.65;;;8.70;99.90;;;;;;6153882;23;20029;-82
2022/02/17 03:54:43;;;;;;;14.95;2.65;;;8.70;99.90;;;;;;6153177;23;20054;-81
2022/02/17 03:57:11;;;;;;;14.57;2.20;;;8.70;99.90;;;;;;6150839;23;20008;-82
2022/02/17 03:59:37;;;;;;;11.30;2.42;;;8.80;99.90;;;;;;6150477;23;20001;-82
2022/02/17 04:02:04;;;;;;;13.57;3.53;;;8.90;99.90;;;;;;6150868;23;20391;-82
2022/02/17 04:04:29;;;;;;;15.45;3.13;;;9.00;99.90;;;;;;6151099;23;20166;-82
2022/02/17 04:06:55;;;;;;;10.65;2.83;;;9.10;99.90;;;;;;6151332;23;20185;-82
2022/02/17 04:09:20;;;;;;;10.55;2.40;;;9.10;99.90;;;;;;6150631;23;20444;-82
2022/02/17 04:11:46;;;;;;;11.48;2.30;;;9.20;99.90;;;;;;6152656;23;20089;-82
2022/02/17 04:14:12;;;;;;;14.88;3.28;;;9.10;99.90;;;;;;6152655;23;20006;-82
2022/02/17 04:16:38;;;;;;;19.65;4.15;;;9.10;99.90;;;;;;6152438;23;20008;-82
2022/02/17 04:19:03;;;;;;;12.55;2.58;;;9.10;99.90;;;;;;6150097;23;20445;-82
2022/02/17 04:21:29;;;;;;;12.43;2.95;;;9.10;99.90;;;;;;6151271;23;20013;-82
2022/02/17 04:23:54;;;;;;;18.02;3.42;;;9.10;99.90;;;;;;6150638;23;20445;-83
2022/02/17 04:26:21;;;;;;;15.82;3.17;;;9.10;99.90;;;;;;6150857;23;20263;-83
2022/02/17 04:28:50;;;;;;;19.98;3.92;;;9.10;99.90;;;;;;6151448;23;20005;-83
2022/02/17 04:31:16;;;;;;;14.32;2.42;;;9.00;99.90;;;;;;6152084;23;20005;-82
2022/02/17 04:34:02;;;;;;;15.38;3.50;;;9.00;99.90;;;;;;6152042;23;20008;-82
2022/02/17 04:36:28;;;;;;;14.20;2.97;;;9.00;99.90;;;;;;6065827;23;20510;-83
2022/02/17 04:38:54;;;;;;;11.30;2.88;;;9.00;99.90;;;;;;6089633;23;20037;-83
2022/02/17 04:44:07;;;;;;;15.40;3.03;;;8.90;99.90;;;;;;6152217;23;20060;-81
2022/02/17 04:46:33;;;;;;;15.38;2.85;;;8.90;99.90;;;;;;6150759;23;20005;-82
2022/02/17 04:48:59;;;;;;;14.35;4.40;;;9.00;99.90;;;;;;6151454;23;20024;-82
2022/02/17 04:51:25;;;;;;;13.15;2.13;;;9.00;99.90;;;;;;6152307;23;20449;-82
2022/02/17 04:53:50;;;;;;;15.15;3.28;;;9.00;99.90;;;;;;6150366;23;20185;-83
2022/02/17 04:56:16;;;;;;;14.23;4.38;;;9.00;99.90;;;;;;6150298;23;19998;-83
2022/02/17 04:58:42;;;;;;;16.40;2.95;;;9.00;99.90;;;;;;6150002;23;20009;-82
2022/02/17 05:01:08;;;;;;;12.52;2.50;;;9.00;99.90;;;;;;6151783;23;20001;-82
2022/02/17 05:03:33;;;;;;;9.38;2.40;;;9.00;99.90;;;;;;6151693;23;20036;-83
2022/02/17 05:05:59;;;;;;;17.17;3.42;;;9.10;99.90;;;;;;6150072;23;20392;-83
2022/02/17 05:08:26;;;;;;;14.93;3.38;;;9.10;99.90;;;;;;6149666;23;20033;-82
2022/02/17 05:10:51;;;;;;;15.38;2.75;;;9.20;99.90;;;;;;6152067;23;19998;-83
2022/02/17 05:13:17;;;;;;;19.48;3.20;;;9.20;99.90;;;;;;6150185;23;20009;-83
2022/02/17 05:15:43;;;;;;;10.38;2.55;;;9.20;99.90;;;;;;6150341;23;20286;-82
2022/02/17 05:18:09;;;;;;;13.48;3.75;;;9.20;99.90;;;;;;6149459;23;20005;-83
2022/02/17 05:20:35;;;;;;;11.93;3.10;;;9.20;99.90;;;;;;6149721;23;20389;-83
2022/02/17 05:23:01;;;;;;;16.00;2.78;;;9.20;99.90;;;;;;6149965;23;20348;-83
2022/02/17 05:25:27;;;;;;;9.63;2.60;;;9.30;99.90;;;;;;6149958;23;20014;-82
2022/02/17 05:27:53;;;;;;;18.35;3.08;;;9.30;99.90;;;;;;6148615;23;20539;-83
2022/02/17 05:30:19;;;;;;;13.73;2.97;;;9.30;99.90;;;;;;6149222;23;20006;-82
2022/02/17 05:32:46;;;;;;;20.42;4.55;;;9.20;99.90;;;;;;6151270;23;20008;-83
2022/02/17 05:35:12;;;;;;;16.27;3.25;;;9.30;99.90;;;;;;6150107;23;20010;-84
2022/02/17 05:37:39;;;;;;;14.98;2.95;;;9.30;99.90;;;;;;6149173;23;20001;-83
2022/02/17 05:40:07;;;;;;;20.10;3.13;;;9.30;99.90;;;;;;6151293;23;20001;-83
2022/02/17 05:42:32;;;;;;;17.42;3.53;;;9.30;99.90;;;;;;6150344;23;20009;-85
2022/02/17 05:44:58;;;;;;;15.40;3.10;;;9.20;99.90;;;;;;6149701;23;20009;-82
2022/02/17 05:47:24;;;;;;;13.82;3.20;;;9.30;99.90;;;;;;6150584;23;20002;-83
2022/02/17 05:49:50;;;;;;;15.40;3.15;;;9.20;99.90;;;;;;6150650;23;20387;-83
2022/02/17 05:52:16;;;;;;;14.55;3.08;;;9.20;99.90;;;;;;6149278;23;20097;-82
2022/02/17 05:54:42;;;;;;;15.95;3.17;;;9.30;99.90;;;;;;6149470;23;20088;-83
2022/02/17 05:57:08;;;;;;;22.27;4.07;;;9.30;99.90;;;;;;6151238;23;20002;-83
2022/02/17 05:59:40;;;;;;;17.60;4.28;;;9.30;99.90;;;;;;6149257;23;20097;-82
2022/02/17 06:02:06;;;;;;;12.43;3.03;;;9.40;99.40;;;;;;6150140;23;20002;-81
2022/02/17 06:04:32;;;;;;;21.15;3.28;;;9.30;99.20;;;;;;6150049;23;20445;-83
2022/02/17 06:06:57;;;;;;;15.32;2.78;;;9.30;98.80;;;;;;6153521;23;20008;-86
2022/02/17 06:09:23;;;;;;;20.13;3.67;;;9.40;99.50;;;;;;6156266;23;20002;-85
2022/02/17 06:11:49;;;;;;;15.30;3.05;;;9.30;99.50;;;;;;6151075;23;20033;-83
2022/02/17 06:14:14;;;;;;;18.35;3.45;;;9.30;99.40;;;;;;6148671;23;20002;-84
2022/02/17 06:16:40;;;;;;;14.48;3.65;;;9.30;99.70;;;;;;6151331;23;20016;-87
2022/02/17 06:19:05;;;;;;;14.60;3.53;;;9.20;99.90;;;;;;6152481;23;20012;-86
2022/02/17 06:21:31;;;;;;;20.10;3.95;;;9.20;99.90;;;;;;6151626;23;20016;-83
2022/02/17 06:23:57;;;;;;;17.30;3.88;;;9.20;99.90;;;;;;6151009;23;20005;-83
2022/02/17 06:26:22;;;;;;;17.85;3.13;;;9.20;99.90;;;;;;6149310;23;19997;-84
2022/02/17 06:28:48;;;;;;;15.73;2.70;;;9.20;99.90;;;;;;6149452;23;20033;-83
2022/02/17 06:31:14;;;;;;;13.77;3.03;;;9.20;99.90;;;;;;6148133;23;20005;-83
2022/02/17 06:33:39;;;;;;;16.25;3.47;;;9.30;99.90;;;;;;6149422;23;20081;-82
2022/02/17 06:36:05;;;;;;;18.42;4.38;;;9.30;99.90;;;;;;6151637;23;20341;-87
2022/02/17 06:38:34;;;;;;;18.23;3.75;;;9.20;99.40;;;;;;6149897;23;20377;-83
2022/02/17 06:40:59;;;;;;;13.43;3.13;;;9.20;99.80;;;;;;6149932;23;20009;-84
2022/02/17 06:43:26;;;;;;;13.35;3.00;;;9.20;99.90;;;;;;6149804;23;20017;-84
2022/02/17 06:45:52;;;;;;;10.23;2.95;;;9.30;99.90;;;;;;6152222;23;20271;-83
2022/02/17 06:48:18;;;;;;;10.05;2.92;;;9.20;99.90;;;;;;6149369;23;20037;-84
2022/02/17 06:50:49;;;;;;;19.50;3.78;;;9.20;99.90;;;;;;6150624;23;20014;-85
2022/02/17 06:53:15;;;;;;;10.82;2.40;;;9.20;99.00;;;;;;6152165;23;20033;-84
2022/02/17 06:55:41;;;;;;;13.73;3.20;;;9.20;99.40;;;;;;6149905;23;20006;-82
2022/02/17 06:58:06;;;;;;;18.30;3.55;;;9.40;99.60;;;;;;6148942;23;20333;-83
2022/02/17 07:00:32;;;;;;;17.10;3.00;;;9.30;99.40;;;;;;6149625;23;20056;-84
2022/02/17 07:02:57;;;;;;;15.95;2.78;;;9.30;99.20;;;;;;6151466;23;20544;-85
2022/02/17 07:05:25;;;;;;;11.82;2.33;;;9.30;99.10;;;;;;6151157;23;20017;-87
2022/02/17 07:07:51;;;;;;;14.50;2.75;;;9.30;99.20;;;;;;6151025;23;20006;-85
2022/02/17 07:10:54;;;;;;;10.43;2.97;;;9.30;99.20;;;;;;6149544;23;20021;-82
2022/02/17 07:13:05;;;;;;;15.10;2.58;;;9.30;98.90;;;;;;6152616;23;20010;-81
2022/02/17 07:15:35;;;;;;;12.77;2.80;;;9.30;99.40;;;;;;6150988;23;20089;-80
2022/02/17 07:18:06;;;;;;;14.43;2.20;;;9.40;98.90;;;;;;6149011;23;19998;-80
2022/02/17 07:20:34;;;;;;;12.65;2.50;;;9.30;99.10;;;;;;6150880;23;20105;-81
2022/02/17 07:22:59;;;;;;;9.75;2.35;;;9.30;99.20;;;;;;6149143;23;20037;-81
2022/02/17 07:25:25;;;;;;;16.77;3.83;;;9.30;99.80;;;;;;6151623;23;20002;-81
2022/02/17 07:27:51;;;;;;;13.73;2.30;;;9.30;99.70;;;;;;6151604;23;20006;-81
2022/02/17 07:30:17;;;;;;;14.60;3.15;;;9.30;99.00;;;;;;6149706;23;20016;-80
2022/02/17 07:32:44;;;;;;;12.48;2.70;;;9.30;99.10;;;;;;6149109;23;20005;-80
2022/02/17 07:35:11;;;;;;;14.27;2.88;;;9.30;98.70;;;;;;6151417;23;20032;-81
2022/02/17 07:37:37;;;;;;;13.75;2.80;;;9.30;99.00;;;;;;6149453;23;20441;-81
2022/02/17 07:40:04;;;;;;;14.05;3.17;;;9.30;99.10;;;;;;6150648;23;20006;-82
2022/02/17 07:42:31;;;;;;;8.35;2.45;;;9.30;99.10;;;;;;6151809;23;20468;-84
2022/02/17 07:45:00;;;;;;;16.58;3.35;;;9.40;98.40;;;;;;6139135;23;20513;-86
2022/02/17 07:47:29;;;;;;;8.88;2.45;;;9.40;98.30;;;;;;6164079;23;20459;-86
2022/02/17 07:49:56;;;;;;;10.52;2.38;;;9.40;98.90;;;;;;6163933;23;20069;-84
2022/02/17 07:52:25;;;;;;;12.68;2.72;;;9.40;98.70;;;;;;6163758;23;20001;-84
2022/02/17 07:54:50;;;;;;;10.13;2.55;;;9.40;98.20;;;;;;6162989;23;20028;-85
2022/02/17 07:57:17;;;;;;;9.85;2.30;;;9.40;98.00;;;;;;6163090;23;20001;-84
2022/02/17 07:59:43;;;;;;;14.07;2.33;;;9.50;98.30;;;;;;6161870;23;20088;-85
2022/02/17 08:02:09;;;;;;;12.57;2.75;;;9.50;97.50;;;;;;6162818;23;20040;-84
2022/02/17 08:04:35;;;;;;;15.50;3.33;;;9.50;97.80;;;;;;6139881;23;20033;-80
2022/02/17 08:07:03;;;;;;;17.50;3.40;;;9.50;98.00;;;;;;6166626;23;20002;-79
2022/02/17 08:09:29;;;;;;;16.38;3.05;;;9.40;97.80;;;;;;6163053;23;20017;-79
